sensor_id;sensor_type;location;lat;lon;timestamp;temperature;humidity
28548;DHT22;68292;49.600;8.746;2023-11-22T00:01:10;16.40;53.50
28548;DHT22;68292;49.600;8.746;2023-11-22T00:03:39;16.40;53.20
28548;DHT22;68292;49.600;8.746;2023-11-22T00:06:08;16.30;53.40
28548;DHT22;68292;49.600;8.746;2023-11-22T00:08:37;16.30;53.40
28548;DHT22;68292;49.600;8.746;2023-11-22T00:11:06;16.30;53.40
28548;DHT22;68292;49.600;8.746;2023-11-22T00:13:34;16.30;53.30
28548;DHT22;68292;49.600;8.746;2023-11-22T00:16:03;16.30;53.10
28548;DHT22;68292;49.600;8.746;2023-11-22T00:18:37;16.30;53.20
28548;DHT22;68292;49.600;8.746;2023-11-22T00:21:06;16.20;53.00
28548;DHT22;68292;49.600;8.746;2023-11-22T00:23:35;16.20;53.00
28548;DHT22;68292;49.600;8.746;2023-11-22T00:26:04;16.20;52.90
28548;DHT22;68292;49.600;8.746;2023-11-22T00:28:33;16.20;52.90
28548;DHT22;68292;49.600;8.746;2023-11-22T00:31:02;16.20;52.80
28548;DHT22;68292;49.600;8.746;2023-11-22T00:33:31;16.20;52.80
28548;DHT22;68292;49.600;8.746;2023-11-22T00:36:03;16.10;52.70
28548;DHT22;68292;49.600;8.746;2023-11-22T00:38:35;16.10;52.60
28548;DHT22;68292;49.600;8.746;2023-11-22T00:41:04;16.10;52.70
28548;DHT22;68292;49.600;8.746;2023-11-22T00:43:34;16.10;52.70
28548;DHT22;68292;49.600;8.746;2023-11-22T00:46:04;16.10;52.70
28548;DHT22;68292;49.600;8.746;2023-11-22T00:48:33;16.10;52.70
28548;DHT22;68292;49.600;8.746;2023-11-22T00:51:03;16.10;52.70
28548;DHT22;68292;49.600;8.746;2023-11-22T00:53:35;16.10;52.60
28548;DHT22;68292;49.600;8.746;2023-11-22T00:56:05;16.10;52.70
28548;DHT22;68292;49.600;8.746;2023-11-22T00:58:34;16.10;52.70
28548;DHT22;68292;49.600;8.746;2023-11-22T01:01:03;16.10;52.80
28548;DHT22;68292;49.600;8.746;2023-11-22T01:03:32;16.10;52.70
28548;DHT22;68292;49.600;8.746;2023-11-22T01:06:03;16.10;52.80
28548;DHT22;68292;49.600;8.746;2023-11-22T01:08:33;16.10;52.80
28548;DHT22;68292;49.600;8.746;2023-11-22T01:11:04;16.10;52.70
28548;DHT22;68292;49.600;8.746;2023-11-22T01:13:33;16.10;52.70
28548;DHT22;68292;49.600;8.746;2023-11-22T01:16:09;16.10;52.60
28548;DHT22;68292;49.600;8.746;2023-11-22T01:18:38;16.10;52.60
28548;DHT22;68292;49.600;8.746;2023-11-22T01:21:12;16.10;52.50
28548;DHT22;68292;49.600;8.746;2023-11-22T01:23:41;16.10;52.30
28548;DHT22;68292;49.600;8.746;2023-11-22T01:26:12;16.10;52.30
28548;DHT22;68292;49.600;8.746;2023-11-22T01:28:41;16.00;52.20
28548;DHT22;68292;49.600;8.746;2023-11-22T01:31:12;16.10;52.20
28548;DHT22;68292;49.600;8.746;2023-11-22T01:33:42;16.10;52.10
28548;DHT22;68292;49.600;8.746;2023-11-22T01:36:12;16.10;52.00
28548;DHT22;68292;49.600;8.746;2023-11-22T01:38:43;16.00;51.80
28548;DHT22;68292;49.600;8.746;2023-11-22T01:41:13;16.00;51.80
28548;DHT22;68292;49.600;8.746;2023-11-22T01:43:42;16.00;51.70
28548;DHT22;68292;49.600;8.746;2023-11-22T01:46:20;16.00;51.50
28548;DHT22;68292;49.600;8.746;2023-11-22T01:48:52;16.00;51.10
28548;DHT22;68292;49.600;8.746;2023-11-22T01:51:22;16.00;51.40
28548;DHT22;68292;49.600;8.746;2023-11-22T01:53:53;15.90;51.00
28548;DHT22;68292;49.600;8.746;2023-11-22T01:56:25;15.90;51.00
28548;DHT22;68292;49.600;8.746;2023-11-22T01:58:55;15.90;50.90
28548;DHT22;68292;49.600;8.746;2023-11-22T02:01:26;15.80;51.00
28548;DHT22;68292;49.600;8.746;2023-11-22T02:03:56;15.80;51.00
28548;DHT22;68292;49.600;8.746;2023-11-22T02:06:26;15.80;50.90
28548;DHT22;68292;49.600;8.746;2023-11-22T02:08:55;15.80;50.70
28548;DHT22;68292;49.600;8.746;2023-11-22T02:11:24;15.80;50.90
28548;DHT22;68292;49.600;8.746;2023-11-22T02:13:55;15.80;50.80
28548;DHT22;68292;49.600;8.746;2023-11-22T02:16:24;15.70;50.70
28548;DHT22;68292;49.600;8.746;2023-11-22T02:18:53;15.70;50.70
28548;DHT22;68292;49.600;8.746;2023-11-22T02:21:22;15.70;50.70
28548;DHT22;68292;49.600;8.746;2023-11-22T02:23:52;15.70;50.70
28548;DHT22;68292;49.600;8.746;2023-11-22T02:26:21;15.70;50.50
28548;DHT22;68292;49.600;8.746;2023-11-22T02:28:50;15.60;50.60
28548;DHT22;68292;49.600;8.746;2023-11-22T02:31:19;15.60;50.50
28548;DHT22;68292;49.600;8.746;2023-11-22T02:33:48;15.60;50.60
28548;DHT22;68292;49.600;8.746;2023-11-22T02:36:18;15.60;50.50
28548;DHT22;68292;49.600;8.746;2023-11-22T02:38:47;15.60;50.40
28548;DHT22;68292;49.600;8.746;2023-11-22T02:41:17;15.60;50.30
28548;DHT22;68292;49.600;8.746;2023-11-22T02:43:46;15.60;50.20
28548;DHT22;68292;49.600;8.746;2023-11-22T02:46:14;15.60;50.40
28548;DHT22;68292;49.600;8.746;2023-11-22T02:48:43;15.50;50.30
28548;DHT22;68292;49.600;8.746;2023-11-22T02:51:12;15.50;50.20
28548;DHT22;68292;49.600;8.746;2023-11-22T02:53:41;15.50;50.20
28548;DHT22;68292;49.600;8.746;2023-11-22T02:56:11;15.50;50.20
28548;DHT22;68292;49.600;8.746;2023-11-22T02:58:42;15.50;50.10
28548;DHT22;68292;49.600;8.746;2023-11-22T03:01:11;15.50;49.70
28548;DHT22;68292;49.600;8.746;2023-11-22T03:03:40;15.50;50.00
28548;DHT22;68292;49.600;8.746;2023-11-22T03:06:09;15.50;49.90
28548;DHT22;68292;49.600;8.746;2023-11-22T03:08:57;15.50;49.90
28548;DHT22;68292;49.600;8.746;2023-11-22T03:11:25;15.50;49.90
28548;DHT22;68292;49.600;8.746;2023-11-22T03:13:56;15.50;49.80
28548;DHT22;68292;49.600;8.746;2023-11-22T03:16:24;15.50;49.60
28548;DHT22;68292;49.600;8.746;2023-11-22T03:18:54;15.50;49.70
28548;DHT22;68292;49.600;8.746;2023-11-22T03:21:25;15.40;49.70
28548;DHT22;68292;49.600;8.746;2023-11-22T03:23:55;15.40;49.60
28548;DHT22;68292;49.600;8.746;2023-11-22T03:26:23;15.40;49.60
28548;DHT22;68292;49.600;8.746;2023-11-22T03:28:52;15.40;49.60
28548;DHT22;68292;49.600;8.746;2023-11-22T03:31:22;15.40;49.50
28548;DHT22;68292;49.600;8.746;2023-11-22T03:33:51;15.40;49.30
28548;DHT22;68292;49.600;8.746;2023-11-22T03:36:20;15.40;49.50
28548;DHT22;68292;49.600;8.746;2023-11-22T03:38:49;15.40;49.40
28548;DHT22;68292;49.600;8.746;2023-11-22T03:41:18;15.30;49.40
28548;DHT22;68292;49.600;8.746;2023-11-22T03:43:48;15.30;49.40
28548;DHT22;68292;49.600;8.746;2023-11-22T03:46:17;15.30;49.30
28548;DHT22;68292;49.600;8.746;2023-11-22T03:48:47;15.30;49.40
28548;DHT22;68292;49.600;8.746;2023-11-22T03:51:16;15.30;49.30
28548;DHT22;68292;49.600;8.746;2023-11-22T03:53:44;15.20;49.30
28548;DHT22;68292;49.600;8.746;2023-11-22T03:56:13;15.30;49.40
28548;DHT22;68292;49.600;8.746;2023-11-22T03:58:42;15.20;49.40
28548;DHT22;68292;49.600;8.746;2023-11-22T04:01:11;15.20;49.30
28548;DHT22;68292;49.600;8.746;2023-11-22T04:03:40;15.20;49.30
28548;DHT22;68292;49.600;8.746;2023-11-22T04:06:11;15.20;49.30
28548;DHT22;68292;49.600;8.746;2023-11-22T04:08:39;15.20;49.20
28548;DHT22;68292;49.600;8.746;2023-11-22T04:11:08;15.20;49.30
28548;DHT22;68292;49.600;8.746;2023-11-22T04:13:37;15.20;49.30
28548;DHT22;68292;49.600;8.746;2023-11-22T04:16:07;15.20;49.20
28548;DHT22;68292;49.600;8.746;2023-11-22T04:18:37;15.10;49.20
28548;DHT22;68292;49.600;8.746;2023-11-22T04:21:06;15.10;49.20
28548;DHT22;68292;49.600;8.746;2023-11-22T04:23:37;15.10;49.20
28548;DHT22;68292;49.600;8.746;2023-11-22T04:26:06;15.10;49.00
28548;DHT22;68292;49.600;8.746;2023-11-22T04:28:34;15.10;49.20
28548;DHT22;68292;49.600;8.746;2023-11-22T04:31:03;15.10;49.20
28548;DHT22;68292;49.600;8.746;2023-11-22T04:33:32;15.10;49.10
28548;DHT22;68292;49.600;8.746;2023-11-22T04:36:01;15.10;49.10
28548;DHT22;68292;49.600;8.746;2023-11-22T04:38:30;15.10;49.00
28548;DHT22;68292;49.600;8.746;2023-11-22T04:41:00;15.10;49.00
28548;DHT22;68292;49.600;8.746;2023-11-22T04:43:29;15.10;48.80
28548;DHT22;68292;49.600;8.746;2023-11-22T04:45:58;15.00;48.70
28548;DHT22;68292;49.600;8.746;2023-11-22T04:48:26;15.00;49.40
28548;DHT22;68292;49.600;8.746;2023-11-22T04:50:55;15.00;48.60
28548;DHT22;68292;49.600;8.746;2023-11-22T04:53:24;15.00;48.50
28548;DHT22;68292;49.600;8.746;2023-11-22T04:55:54;15.00;48.40
28548;DHT22;68292;49.600;8.746;2023-11-22T04:58:24;15.00;48.30
28548;DHT22;68292;49.600;8.746;2023-11-22T05:00:53;15.00;48.10
28548;DHT22;68292;49.600;8.746;2023-11-22T05:03:22;14.90;48.10
28548;DHT22;68292;49.600;8.746;2023-11-22T05:05:51;14.90;48.10
28548;DHT22;68292;49.600;8.746;2023-11-22T05:08:20;14.90;48.00
28548;DHT22;68292;49.600;8.746;2023-11-22T05:10:49;14.90;48.00
28548;DHT22;68292;49.600;8.746;2023-11-22T05:13:20;14.90;48.00
28548;DHT22;68292;49.600;8.746;2023-11-22T05:15:51;14.90;47.90
28548;DHT22;68292;49.600;8.746;2023-11-22T05:18:20;14.90;47.70
28548;DHT22;68292;49.600;8.746;2023-11-22T05:20:49;14.80;47.70
28548;DHT22;68292;49.600;8.746;2023-11-22T05:23:18;14.90;47.70
28548;DHT22;68292;49.600;8.746;2023-11-22T05:25:47;14.80;47.70
28548;DHT22;68292;49.600;8.746;2023-11-22T05:28:16;14.80;47.60
28548;DHT22;68292;49.600;8.746;2023-11-22T05:30:44;14.80;47.60
28548;DHT22;68292;49.600;8.746;2023-11-22T05:33:14;14.80;47.50
28548;DHT22;68292;49.600;8.746;2023-11-22T05:35:43;14.80;47.40
28548;DHT22;68292;49.600;8.746;2023-11-22T05:38:12;14.80;47.50
28548;DHT22;68292;49.600;8.746;2023-11-22T05:40:41;14.80;47.50
28548;DHT22;68292;49.600;8.746;2023-11-22T05:43:10;14.80;47.50
28548;DHT22;68292;49.600;8.746;2023-11-22T05:45:39;14.80;47.50
28548;DHT22;68292;49.600;8.746;2023-11-22T05:48:08;14.70;47.40
28548;DHT22;68292;49.600;8.746;2023-11-22T05:50:38;14.70;47.40
28548;DHT22;68292;49.600;8.746;2023-11-22T05:53:06;14.70;47.30
28548;DHT22;68292;49.600;8.746;2023-11-22T05:55:36;14.70;47.40
28548;DHT22;68292;49.600;8.746;2023-11-22T05:58:05;14.70;47.40
28548;DHT22;68292;49.600;8.746;2023-11-22T06:00:33;14.60;47.30
28548;DHT22;68292;49.600;8.746;2023-11-22T06:03:02;14.60;47.20
28548;DHT22;68292;49.600;8.746;2023-11-22T06:05:31;14.60;47.20
28548;DHT22;68292;49.600;8.746;2023-11-22T06:08:01;14.60;47.20
28548;DHT22;68292;49.600;8.746;2023-11-22T06:10:30;14.60;47.00
28548;DHT22;68292;49.600;8.746;2023-11-22T06:12:59;14.60;47.10
28548;DHT22;68292;49.600;8.746;2023-11-22T06:15:28;14.60;47.10
28548;DHT22;68292;49.600;8.746;2023-11-22T06:17:59;14.60;46.90
28548;DHT22;68292;49.600;8.746;2023-11-22T06:20:28;14.60;47.50
28548;DHT22;68292;49.600;8.746;2023-11-22T06:22:57;14.60;46.80
28548;DHT22;68292;49.600;8.746;2023-11-22T06:25:27;14.50;46.70
28548;DHT22;68292;49.600;8.746;2023-11-22T06:27:55;14.50;46.50
28548;DHT22;68292;49.600;8.746;2023-11-22T06:30:27;14.50;46.70
28548;DHT22;68292;49.600;8.746;2023-11-22T06:32:57;14.50;46.70
28548;DHT22;68292;49.600;8.746;2023-11-22T06:35:26;14.50;46.60
28548;DHT22;68292;49.600;8.746;2023-11-22T06:37:55;14.50;46.60
28548;DHT22;68292;49.600;8.746;2023-11-22T06:40:24;14.50;46.60
28548;DHT22;68292;49.600;8.746;2023-11-22T06:42:54;14.50;46.60
28548;DHT22;68292;49.600;8.746;2023-11-22T06:45:23;14.50;46.40
28548;DHT22;68292;49.600;8.746;2023-11-22T06:47:52;14.50;46.50
28548;DHT22;68292;49.600;8.746;2023-11-22T06:50:21;14.50;46.50
28548;DHT22;68292;49.600;8.746;2023-11-22T06:52:50;14.50;46.50
28548;DHT22;68292;49.600;8.746;2023-11-22T06:55:19;14.40;46.50
28548;DHT22;68292;49.600;8.746;2023-11-22T06:57:49;14.40;46.40
28548;DHT22;68292;49.600;8.746;2023-11-22T07:00:20;14.40;46.40
28548;DHT22;68292;49.600;8.746;2023-11-22T07:02:49;14.40;46.30
28548;DHT22;68292;49.600;8.746;2023-11-22T07:05:18;14.40;46.40
28548;DHT22;68292;49.600;8.746;2023-11-22T07:07:46;14.40;46.40
28548;DHT22;68292;49.600;8.746;2023-11-22T07:10:17;14.40;46.30
28548;DHT22;68292;49.600;8.746;2023-11-22T07:12:48;14.40;46.30
28548;DHT22;68292;49.600;8.746;2023-11-22T07:15:19;14.40;46.30
28548;DHT22;68292;49.600;8.746;2023-11-22T07:17:48;14.40;46.20
28548;DHT22;68292;49.600;8.746;2023-11-22T07:20:17;14.40;46.20
28548;DHT22;68292;49.600;8.746;2023-11-22T07:22:45;14.40;46.20
28548;DHT22;68292;49.600;8.746;2023-11-22T07:25:22;14.40;46.10
28548;DHT22;68292;49.600;8.746;2023-11-22T07:27:52;14.40;46.10
28548;DHT22;68292;49.600;8.746;2023-11-22T07:30:23;14.40;46.10
28548;DHT22;68292;49.600;8.746;2023-11-22T07:32:54;14.30;45.80
28548;DHT22;68292;49.600;8.746;2023-11-22T07:35:23;14.30;46.00
28548;DHT22;68292;49.600;8.746;2023-11-22T07:37:53;14.30;46.00
28548;DHT22;68292;49.600;8.746;2023-11-22T07:40:22;14.30;46.00
28548;DHT22;68292;49.600;8.746;2023-11-22T07:42:50;14.30;45.90
28548;DHT22;68292;49.600;8.746;2023-11-22T07:45:19;14.30;46.00
28548;DHT22;68292;49.600;8.746;2023-11-22T07:47:51;14.30;46.00
28548;DHT22;68292;49.600;8.746;2023-11-22T07:50:20;14.30;45.80
28548;DHT22;68292;49.600;8.746;2023-11-22T07:52:51;14.30;46.00
28548;DHT22;68292;49.600;8.746;2023-11-22T07:55:21;14.30;46.00
28548;DHT22;68292;49.600;8.746;2023-11-22T07:57:50;14.30;46.00
28548;DHT22;68292;49.600;8.746;2023-11-22T08:00:20;14.30;46.00
28548;DHT22;68292;49.600;8.746;2023-11-22T08:02:51;14.30;46.00
28548;DHT22;68292;49.600;8.746;2023-11-22T08:05:21;14.30;45.90
28548;DHT22;68292;49.600;8.746;2023-11-22T08:07:51;14.30;46.10
28548;DHT22;68292;49.600;8.746;2023-11-22T08:10:20;14.30;46.10
28548;DHT22;68292;49.600;8.746;2023-11-22T08:12:50;14.30;46.10
28548;DHT22;68292;49.600;8.746;2023-11-22T08:15:19;14.30;46.10
28548;DHT22;68292;49.600;8.746;2023-11-22T08:17:50;14.30;46.10
28548;DHT22;68292;49.600;8.746;2023-11-22T08:20:19;14.30;46.00
28548;DHT22;68292;49.600;8.746;2023-11-22T08:22:48;14.40;46.00
28548;DHT22;68292;49.600;8.746;2023-11-22T08:25:18;14.40;46.00
28548;DHT22;68292;49.600;8.746;2023-11-22T08:27:47;14.40;45.90
28548;DHT22;68292;49.600;8.746;2023-11-22T08:30:16;14.40;46.00
28548;DHT22;68292;49.600;8.746;2023-11-22T08:32:46;14.40;45.90
28548;DHT22;68292;49.600;8.746;2023-11-22T08:35:23;14.40;45.90
28548;DHT22;68292;49.600;8.746;2023-11-22T08:37:51;14.40;45.90
28548;DHT22;68292;49.600;8.746;2023-11-22T08:40:20;14.40;46.00
28548;DHT22;68292;49.600;8.746;2023-11-22T08:42:49;14.40;46.00
28548;DHT22;68292;49.600;8.746;2023-11-22T08:45:18;14.40;46.00
28548;DHT22;68292;49.600;8.746;2023-11-22T08:47:47;14.50;46.00
28548;DHT22;68292;49.600;8.746;2023-11-22T08:50:17;14.50;46.00
28548;DHT22;68292;49.600;8.746;2023-11-22T08:52:48;14.50;46.00
28548;DHT22;68292;49.600;8.746;2023-11-22T08:55:20;14.50;45.90
28548;DHT22;68292;49.600;8.746;2023-11-22T08:57:50;14.60;46.00
28548;DHT22;68292;49.600;8.746;2023-11-22T09:03:15;14.60;45.50
28548;DHT22;68292;49.600;8.746;2023-11-22T09:05:44;14.60;45.90
28548;DHT22;68292;49.600;8.746;2023-11-22T09:08:15;14.70;45.90
28548;DHT22;68292;49.600;8.746;2023-11-22T09:10:53;14.70;45.70
28548;DHT22;68292;49.600;8.746;2023-11-22T09:13:21;14.70;45.80
28548;DHT22;68292;49.600;8.746;2023-11-22T09:15:51;14.70;45.80
28548;DHT22;68292;49.600;8.746;2023-11-22T09:18:20;14.70;45.70
28548;DHT22;68292;49.600;8.746;2023-11-22T09:20:49;14.70;45.60
28548;DHT22;68292;49.600;8.746;2023-11-22T09:23:20;14.80;45.70
28548;DHT22;68292;49.600;8.746;2023-11-22T09:25:51;14.70;45.50
28548;DHT22;68292;49.600;8.746;2023-11-22T09:28:20;14.80;45.40
28548;DHT22;68292;49.600;8.746;2023-11-22T09:30:49;14.80;45.80
28548;DHT22;68292;49.600;8.746;2023-11-22T09:33:18;14.80;45.80
28548;DHT22;68292;49.600;8.746;2023-11-22T09:35:47;14.90;45.70
28548;DHT22;68292;49.600;8.746;2023-11-22T09:38:16;14.90;45.60
28548;DHT22;68292;49.600;8.746;2023-11-22T09:40:48;14.80;45.60
28548;DHT22;68292;49.600;8.746;2023-11-22T09:43:19;14.90;45.40
28548;DHT22;68292;49.600;8.746;2023-11-22T09:45:50;14.90;45.50
28548;DHT22;68292;49.600;8.746;2023-11-22T09:48:25;14.90;45.60
28548;DHT22;68292;49.600;8.746;2023-11-22T09:51:00;14.90;45.60
28548;DHT22;68292;49.600;8.746;2023-11-22T09:53:33;14.90;45.50
28548;DHT22;68292;49.600;8.746;2023-11-22T09:56:07;15.00;45.60
28548;DHT22;68292;49.600;8.746;2023-11-22T09:58:40;15.00;45.90
28548;DHT22;68292;49.600;8.746;2023-11-22T10:01:11;15.00;45.50
28548;DHT22;68292;49.600;8.746;2023-11-22T10:03:41;15.00;45.60
28548;DHT22;68292;49.600;8.746;2023-11-22T10:06:10;15.10;45.70
28548;DHT22;68292;49.600;8.746;2023-11-22T10:08:39;15.10;45.60
28548;DHT22;68292;49.600;8.746;2023-11-22T10:11:10;15.10;45.70
28548;DHT22;68292;49.600;8.746;2023-11-22T10:13:40;15.20;45.60
28548;DHT22;68292;49.600;8.746;2023-11-22T10:16:10;15.20;46.40
28548;DHT22;68292;49.600;8.746;2023-11-22T10:18:41;15.20;45.60
28548;DHT22;68292;49.600;8.746;2023-11-22T10:35:24;15.40;45.10
28548;DHT22;68292;49.600;8.746;2023-11-22T10:37:53;15.40;45.50
28548;DHT22;68292;49.600;8.746;2023-11-22T10:43:37;15.40;45.20
28548;DHT22;68292;49.600;8.746;2023-11-22T10:48:37;15.50;45.40
28548;DHT22;68292;49.600;8.746;2023-11-22T10:57:26;15.50;45.10
28548;DHT22;68292;49.600;8.746;2023-11-22T10:59:57;15.50;45.30
28548;DHT22;68292;49.600;8.746;2023-11-22T11:02:37;15.50;45.40
28548;DHT22;68292;49.600;8.746;2023-11-22T11:05:14;15.50;44.90
28548;DHT22;68292;49.600;8.746;2023-11-22T11:07:49;15.50;45.20
28548;DHT22;68292;49.600;8.746;2023-11-22T11:10:23;15.50;44.90
28548;DHT22;68292;49.600;8.746;2023-11-22T11:12:52;15.40;44.90
28548;DHT22;68292;49.600;8.746;2023-11-22T11:15:22;15.40;45.00
28548;DHT22;68292;49.600;8.746;2023-11-22T11:17:51;15.50;45.20
28548;DHT22;68292;49.600;8.746;2023-11-22T11:20:22;15.50;44.90
28548;DHT22;68292;49.600;8.746;2023-11-22T11:22:52;15.50;44.70
28548;DHT22;68292;49.600;8.746;2023-11-22T11:25:24;15.40;44.80
28548;DHT22;68292;49.600;8.746;2023-11-22T11:27:56;15.40;44.70
28548;DHT22;68292;49.600;8.746;2023-11-22T11:30:50;15.40;44.60
28548;DHT22;68292;49.600;8.746;2023-11-22T11:33:32;15.40;44.30
28548;DHT22;68292;49.600;8.746;2023-11-22T11:36:02;15.40;45.20
28548;DHT22;68292;49.600;8.746;2023-11-22T11:38:34;15.40;44.80
28548;DHT22;68292;49.600;8.746;2023-11-22T11:41:09;15.40;44.80
28548;DHT22;68292;49.600;8.746;2023-11-22T11:43:43;15.40;44.50
28548;DHT22;68292;49.600;8.746;2023-11-22T11:46:13;15.30;44.60
28548;DHT22;68292;49.600;8.746;2023-11-22T11:48:43;15.30;44.60
28548;DHT22;68292;49.600;8.746;2023-11-22T11:51:16;15.30;44.50
28548;DHT22;68292;49.600;8.746;2023-11-22T11:53:46;15.30;44.40
28548;DHT22;68292;49.600;8.746;2023-11-22T11:56:16;15.30;45.20
28548;DHT22;68292;49.600;8.746;2023-11-22T11:58:49;15.30;44.30
28548;DHT22;68292;49.600;8.746;2023-11-22T12:01:51;15.30;44.30
28548;DHT22;68292;49.600;8.746;2023-11-22T12:06:48;15.30;43.80
28548;DHT22;68292;49.600;8.746;2023-11-22T12:09:51;15.30;43.90
28548;DHT22;68292;49.600;8.746;2023-11-22T12:12:21;15.30;44.40
28548;DHT22;68292;49.600;8.746;2023-11-22T12:14:50;15.30;44.30
28548;DHT22;68292;49.600;8.746;2023-11-22T12:17:19;15.30;44.30
28548;DHT22;68292;49.600;8.746;2023-11-22T12:19:48;15.20;44.20
28548;DHT22;68292;49.600;8.746;2023-11-22T12:22:17;15.20;44.30
28548;DHT22;68292;49.600;8.746;2023-11-22T12:24:47;15.20;44.30
28548;DHT22;68292;49.600;8.746;2023-11-22T12:27:15;15.20;44.20
28548;DHT22;68292;49.600;8.746;2023-11-22T12:29:46;15.20;44.10
28548;DHT22;68292;49.600;8.746;2023-11-22T12:32:15;15.20;43.80
28548;DHT22;68292;49.600;8.746;2023-11-22T12:34:45;15.20;43.90
28548;DHT22;68292;49.600;8.746;2023-11-22T12:37:13;15.20;43.90
28548;DHT22;68292;49.600;8.746;2023-11-22T12:39:42;15.10;43.90
28548;DHT22;68292;49.600;8.746;2023-11-22T12:42:13;15.20;43.90
28548;DHT22;68292;49.600;8.746;2023-11-22T12:44:50;15.10;43.80
28548;DHT22;68292;49.600;8.746;2023-11-22T12:47:32;15.10;43.40
28548;DHT22;68292;49.600;8.746;2023-11-22T12:50:04;15.10;43.30
28548;DHT22;68292;49.600;8.746;2023-11-22T12:52:34;15.10;43.80
28548;DHT22;68292;49.600;8.746;2023-11-22T12:55:04;15.10;43.80
28548;DHT22;68292;49.600;8.746;2023-11-22T12:57:35;15.10;44.40
28548;DHT22;68292;49.600;8.746;2023-11-22T13:00:07;15.10;43.80
28548;DHT22;68292;49.600;8.746;2023-11-22T13:02:38;15.10;43.60
28548;DHT22;68292;49.600;8.746;2023-11-22T13:05:26;15.10;43.80
28548;DHT22;68292;49.600;8.746;2023-11-22T13:07:55;15.10;43.80
28548;DHT22;68292;49.600;8.746;2023-11-22T13:10:26;15.10;43.90
28548;DHT22;68292;49.600;8.746;2023-11-22T13:12:56;15.10;44.00
28548;DHT22;68292;49.600;8.746;2023-11-22T13:15:27;15.10;44.00
28548;DHT22;68292;49.600;8.746;2023-11-22T13:17:57;15.10;43.70
28548;DHT22;68292;49.600;8.746;2023-11-22T13:20:26;15.10;43.70
28548;DHT22;68292;49.600;8.746;2023-11-22T13:22:55;15.10;43.70
28548;DHT22;68292;49.600;8.746;2023-11-22T13:25:27;15.10;43.50
28548;DHT22;68292;49.600;8.746;2023-11-22T13:27:55;15.10;43.40
28548;DHT22;68292;49.600;8.746;2023-11-22T13:30:27;15.10;43.40
28548;DHT22;68292;49.600;8.746;2023-11-22T13:32:56;15.10;43.20
28548;DHT22;68292;49.600;8.746;2023-11-22T13:35:25;15.10;43.40
28548;DHT22;68292;49.600;8.746;2023-11-22T13:37:59;15.10;43.50
28548;DHT22;68292;49.600;8.746;2023-11-22T13:40:29;15.10;43.40
28548;DHT22;68292;49.600;8.746;2023-11-22T13:42:58;15.10;43.40
28548;DHT22;68292;49.600;8.746;2023-11-22T13:45:28;15.10;43.40
28548;DHT22;68292;49.600;8.746;2023-11-22T13:47:57;15.10;43.30
28548;DHT22;68292;49.600;8.746;2023-11-22T13:50:31;15.10;43.40
28548;DHT22;68292;49.600;8.746;2023-11-22T13:52:59;15.10;43.40
28548;DHT22;68292;49.600;8.746;2023-11-22T13:55:28;15.10;43.30
28548;DHT22;68292;49.600;8.746;2023-11-22T13:57:58;15.10;43.10
28548;DHT22;68292;49.600;8.746;2023-11-22T14:00:30;15.10;43.00
28548;DHT22;68292;49.600;8.746;2023-11-22T14:03:03;15.10;42.70
28548;DHT22;68292;49.600;8.746;2023-11-22T14:05:36;15.10;42.80
28548;DHT22;68292;49.600;8.746;2023-11-22T14:08:06;15.10;42.80
28548;DHT22;68292;49.600;8.746;2023-11-22T14:10:35;15.10;42.90
28548;DHT22;68292;49.600;8.746;2023-11-22T14:13:05;15.10;42.80
28548;DHT22;68292;49.600;8.746;2023-11-22T14:15:36;15.10;42.80
28548;DHT22;68292;49.600;8.746;2023-11-22T14:18:05;15.10;42.60
28548;DHT22;68292;49.600;8.746;2023-11-22T14:20:34;15.10;42.90
28548;DHT22;68292;49.600;8.746;2023-11-22T14:23:04;15.10;42.70
28548;DHT22;68292;49.600;8.746;2023-11-22T14:25:35;15.10;42.80
28548;DHT22;68292;49.600;8.746;2023-11-22T14:28:06;15.10;42.80
28548;DHT22;68292;49.600;8.746;2023-11-22T14:30:37;15.10;42.80
28548;DHT22;68292;49.600;8.746;2023-11-22T14:33:06;15.10;42.70
28548;DHT22;68292;49.600;8.746;2023-11-22T14:35:35;15.10;42.80
28548;DHT22;68292;49.600;8.746;2023-11-22T14:38:05;15.10;42.80
28548;DHT22;68292;49.600;8.746;2023-11-22T14:40:34;15.10;42.80
28548;DHT22;68292;49.600;8.746;2023-11-22T14:43:05;15.00;42.70
28548;DHT22;68292;49.600;8.746;2023-11-22T14:45:34;15.10;42.70
28548;DHT22;68292;49.600;8.746;2023-11-22T14:48:06;15.00;42.70
28548;DHT22;68292;49.600;8.746;2023-11-22T14:50:36;15.10;42.50
28548;DHT22;68292;49.600;8.746;2023-11-22T14:53:05;15.00;42.50
28548;DHT22;68292;49.600;8.746;2023-11-22T14:55:34;15.00;42.40
28548;DHT22;68292;49.600;8.746;2023-11-22T14:58:07;15.00;42.40
28548;DHT22;68292;49.600;8.746;2023-11-22T15:00:37;15.00;42.30
28548;DHT22;68292;49.600;8.746;2023-11-22T15:03:07;15.00;42.50
28548;DHT22;68292;49.600;8.746;2023-11-22T15:05:38;14.90;42.30
28548;DHT22;68292;49.600;8.746;2023-11-22T15:08:07;14.90;42.50
28548;DHT22;68292;49.600;8.746;2023-11-22T15:10:36;14.90;42.40
28548;DHT22;68292;49.600;8.746;2023-11-22T15:13:07;14.90;42.30
28548;DHT22;68292;49.600;8.746;2023-11-22T15:15:37;14.90;42.30
28548;DHT22;68292;49.600;8.746;2023-11-22T15:18:07;14.90;42.30
28548;DHT22;68292;49.600;8.746;2023-11-22T15:20:36;14.80;42.00
28548;DHT22;68292;49.600;8.746;2023-11-22T15:23:05;14.80;42.10
28548;DHT22;68292;49.600;8.746;2023-11-22T15:25:36;14.80;42.10
28548;DHT22;68292;49.600;8.746;2023-11-22T15:28:05;14.80;42.30
28548;DHT22;68292;49.600;8.746;2023-11-22T15:30:36;14.80;42.30
28548;DHT22;68292;49.600;8.746;2023-11-22T15:33:06;14.80;42.30
28548;DHT22;68292;49.600;8.746;2023-11-22T15:35:36;14.80;42.30
28548;DHT22;68292;49.600;8.746;2023-11-22T15:38:05;14.80;42.40
28548;DHT22;68292;49.600;8.746;2023-11-22T15:40:34;14.80;42.40
28548;DHT22;68292;49.600;8.746;2023-11-22T15:43:03;14.70;42.20
28548;DHT22;68292;49.600;8.746;2023-11-22T15:45:33;14.70;42.20
28548;DHT22;68292;49.600;8.746;2023-11-22T15:48:02;14.70;42.10
28548;DHT22;68292;49.600;8.746;2023-11-22T15:50:33;14.70;42.20
28548;DHT22;68292;49.600;8.746;2023-11-22T15:53:02;14.70;42.30
28548;DHT22;68292;49.600;8.746;2023-11-22T15:55:31;14.60;42.50
28548;DHT22;68292;49.600;8.746;2023-11-22T15:57:59;14.60;42.50
28548;DHT22;68292;49.600;8.746;2023-11-22T16:00:28;14.60;42.50
28548;DHT22;68292;49.600;8.746;2023-11-22T16:02:57;14.60;42.50
28548;DHT22;68292;49.600;8.746;2023-11-22T16:05:26;14.60;42.40
28548;DHT22;68292;49.600;8.746;2023-11-22T16:07:57;14.60;42.30
28548;DHT22;68292;49.600;8.746;2023-11-22T16:10:26;14.60;42.40
28548;DHT22;68292;49.600;8.746;2023-11-22T16:12:55;14.60;42.50
28548;DHT22;68292;49.600;8.746;2023-11-22T16:15:23;14.60;42.50
28548;DHT22;68292;49.600;8.746;2023-11-22T16:17:52;14.50;42.60
28548;DHT22;68292;49.600;8.746;2023-11-22T16:20:23;14.50;42.60